sensor_id;sensor_type;location;lat;lon;timestamp;P1;durP1;ratioP1;P2;durP2;ratioP2
3939;SDS011;1984;48.312;9.244;2024-03-23T00:53:06;6.90;;;3.33;;
3939;SDS011;1984;48.312;9.244;2024-03-23T00:55:32;4.03;;;3.47;;
3939;SDS011;1984;48.312;9.244;2024-03-23T00:57:58;4.63;;;3.60;;
3939;SDS011;1984;48.312;9.244;2024-03-23T01:00:23;4.23;;;3.30;;
3939;SDS011;1984;48.312;9.244;2024-03-23T01:02:49;5.90;;;3.77;;
3939;SDS011;1984;48.312;9.244;2024-03-23T01:05:14;6.70;;;3.83;;
3939;SDS011;1984;48.312;9.244;2024-03-23T01:07:40;8.97;;;3.57;;
3939;SDS011;1984;48.312;9.244;2024-03-23T01:10:05;5.67;;;3.53;;
3939;SDS011;1984;48.312;9.244;2024-03-23T01:12:31;4.90;;;3.37;;
3939;SDS011;1984;48.312;9.244;2024-03-23T01:14:57;6.80;;;3.80;;
3939;SDS011;1984;48.312;9.244;2024-03-23T01:17:22;5.43;;;3.20;;
3939;SDS011;1984;48.312;9.244;2024-03-23T01:19:48;4.67;;;3.37;;
3939;SDS011;1984;48.312;9.244;2024-03-23T01:22:13;3.47;;;2.80;;
3939;SDS011;1984;48.312;9.244;2024-03-23T01:24:39;3.70;;;3.10;;
3939;SDS011;1984;48.312;9.244;2024-03-23T01:27:04;7.70;;;2.70;;
3939;SDS011;1984;48.312;9.244;2024-03-23T01:29:30;2.70;;;2.47;;
3939;SDS011;1984;48.312;9.244;2024-03-23T01:31:55;2.60;;;2.40;;
3939;SDS011;1984;48.312;9.244;2024-03-23T01:34:21;2.30;;;2.10;;
3939;SDS011;1984;48.312;9.244;2024-03-23T01:36:46;3.30;;;2.63;;
3939;SDS011;1984;48.312;9.244;2024-03-23T01:39:12;2.23;;;2.03;;
3939;SDS011;1984;48.312;9.244;2024-03-23T01:41:39;3.60;;;2.27;;
3939;SDS011;1984;48.312;9.244;2024-03-23T01:44:07;2.80;;;1.70;;
3939;SDS011;1984;48.312;9.244;2024-03-23T01:46:36;1.90;;;1.80;;
3939;SDS011;1984;48.312;9.244;2024-03-23T01:49:03;2.17;;;2.00;;
3939;SDS011;1984;48.312;9.244;2024-03-23T01:51:30;2.50;;;2.00;;
3939;SDS011;1984;48.312;9.244;2024-03-23T01:53:56;2.30;;;2.10;;
3939;SDS011;1984;48.312;9.244;2024-03-23T01:56:22;3.27;;;2.03;;
3939;SDS011;1984;48.312;9.244;2024-03-23T01:58:48;2.23;;;2.03;;
3939;SDS011;1984;48.312;9.244;2024-03-23T02:01:13;3.80;;;2.03;;
3939;SDS011;1984;48.312;9.244;2024-03-23T02:03:39;2.47;;;2.27;;
3939;SDS011;1984;48.312;9.244;2024-03-23T02:06:04;3.00;;;2.10;;
3939;SDS011;1984;48.312;9.244;2024-03-23T02:08:32;12.97;;;2.40;;
3939;SDS011;1984;48.312;9.244;2024-03-23T02:10:58;2.20;;;1.83;;
3939;SDS011;1984;48.312;9.244;2024-03-23T02:13:23;3.00;;;2.10;;
3939;SDS011;1984;48.312;9.244;2024-03-23T02:15:49;2.30;;;2.00;;
3939;SDS011;1984;48.312;9.244;2024-03-23T02:18:15;2.20;;;2.00;;
3939;SDS011;1984;48.312;9.244;2024-03-23T02:20:40;3.17;;;1.73;;
3939;SDS011;1984;48.312;9.244;2024-03-23T02:23:10;3.73;;;2.20;;
3939;SDS011;1984;48.312;9.244;2024-03-23T02:25:38;2.73;;;1.77;;
3939;SDS011;1984;48.312;9.244;2024-03-23T02:28:04;4.43;;;2.07;;
3939;SDS011;1984;48.312;9.244;2024-03-23T02:30:30;8.07;;;2.57;;
3939;SDS011;1984;48.312;9.244;2024-03-23T02:32:55;3.43;;;2.13;;
3939;SDS011;1984;48.312;9.244;2024-03-23T02:35:21;2.20;;;2.10;;
3939;SDS011;1984;48.312;9.244;2024-03-23T02:37:46;6.33;;;2.10;;
3939;SDS011;1984;48.312;9.244;2024-03-23T02:40:13;2.30;;;1.50;;
3939;SDS011;1984;48.312;9.244;2024-03-23T02:42:40;2.13;;;1.93;;
3939;SDS011;1984;48.312;9.244;2024-03-23T02:45:06;3.17;;;1.90;;
3939;SDS011;1984;48.312;9.244;2024-03-23T02:47:32;2.50;;;2.30;;
3939;SDS011;1984;48.312;9.244;2024-03-23T02:49:57;2.87;;;2.27;;
3939;SDS011;1984;48.312;9.244;2024-03-23T02:52:23;1.93;;;1.80;;
3939;SDS011;1984;48.312;9.244;2024-03-23T02:54:48;2.07;;;1.97;;
3939;SDS011;1984;48.312;9.244;2024-03-23T02:57:14;3.57;;;1.80;;
3939;SDS011;1984;48.312;9.244;2024-03-23T02:59:40;2.53;;;1.87;;
3939;SDS011;1984;48.312;9.244;2024-03-23T03:02:06;2.30;;;2.20;;
3939;SDS011;1984;48.312;9.244;2024-03-23T03:04:31;2.13;;;1.97;;
3939;SDS011;1984;48.312;9.244;2024-03-23T03:06:57;3.73;;;1.90;;
3939;SDS011;1984;48.312;9.244;2024-03-23T03:09:22;2.30;;;2.10;;
3939;SDS011;1984;48.312;9.244;2024-03-23T03:11:48;3.43;;;2.00;;
3939;SDS011;1984;48.312;9.244;2024-03-23T03:14:14;3.30;;;1.80;;
3939;SDS011;1984;48.312;9.244;2024-03-23T03:16:39;2.30;;;1.67;;
3939;SDS011;1984;48.312;9.244;2024-03-23T03:19:05;2.07;;;1.97;;
3939;SDS011;1984;48.312;9.244;2024-03-23T03:21:31;1.70;;;1.60;;
3939;SDS011;1984;48.312;9.244;2024-03-23T03:23:57;2.23;;;2.10;;
3939;SDS011;1984;48.312;9.244;2024-03-23T03:26:23;2.43;;;2.00;;
3939;SDS011;1984;48.312;9.244;2024-03-23T03:28:49;2.63;;;2.17;;
3939;SDS011;1984;48.312;9.244;2024-03-23T03:31:15;3.03;;;2.00;;
3939;SDS011;1984;48.312;9.244;2024-03-23T03:33:41;2.13;;;2.03;;
3939;SDS011;1984;48.312;9.244;2024-03-23T03:36:07;2.67;;;2.20;;
3939;SDS011;1984;48.312;9.244;2024-03-23T03:38:33;2.67;;;2.47;;
3939;SDS011;1984;48.312;9.244;2024-03-23T03:41:03;3.00;;;2.40;;
3939;SDS011;1984;48.312;9.244;2024-03-23T03:43:29;2.90;;;2.37;;
3939;SDS011;1984;48.312;9.244;2024-03-23T03:45:56;3.17;;;2.70;;
3939;SDS011;1984;48.312;9.244;2024-03-23T03:48:22;3.10;;;2.40;;
3939;SDS011;1984;48.312;9.244;2024-03-23T03:50:49;6.67;;;2.30;;
3939;SDS011;1984;48.312;9.244;2024-03-23T03:53:14;2.00;;;1.90;;
3939;SDS011;1984;48.312;9.244;2024-03-23T03:55:41;1.77;;;1.67;;
3939;SDS011;1984;48.312;9.244;2024-03-23T03:58:06;2.43;;;1.93;;
3939;SDS011;1984;48.312;9.244;2024-03-23T04:00:32;2.53;;;2.33;;
3939;SDS011;1984;48.312;9.244;2024-03-23T04:02:57;2.50;;;2.30;;
3939;SDS011;1984;48.312;9.244;2024-03-23T04:05:23;2.37;;;2.13;;
3939;SDS011;1984;48.312;9.244;2024-03-23T04:07:49;2.10;;;1.70;;
3939;SDS011;1984;48.312;9.244;2024-03-23T04:10:14;4.43;;;2.17;;
3939;SDS011;1984;48.312;9.244;2024-03-23T04:12:40;2.63;;;2.43;;
3939;SDS011;1984;48.312;9.244;2024-03-23T04:15:06;2.43;;;2.20;;
3939;SDS011;1984;48.312;9.244;2024-03-23T04:17:33;2.30;;;2.20;;
3939;SDS011;1984;48.312;9.244;2024-03-23T04:19:59;2.37;;;2.20;;
3939;SDS011;1984;48.312;9.244;2024-03-23T04:22:26;3.53;;;2.47;;
3939;SDS011;1984;48.312;9.244;2024-03-23T04:24:55;3.57;;;2.23;;
3939;SDS011;1984;48.312;9.244;2024-03-23T04:27:21;4.20;;;2.40;;
3939;SDS011;1984;48.312;9.244;2024-03-23T04:29:50;4.00;;;3.20;;
3939;SDS011;1984;48.312;9.244;2024-03-23T04:32:17;2.60;;;2.33;;
3939;SDS011;1984;48.312;9.244;2024-03-23T04:34:42;2.30;;;2.10;;
3939;SDS011;1984;48.312;9.244;2024-03-23T04:37:09;3.67;;;1.90;;
3939;SDS011;1984;48.312;9.244;2024-03-23T04:39:38;5.13;;;1.50;;
3939;SDS011;1984;48.312;9.244;2024-03-23T04:42:04;2.70;;;2.47;;
3939;SDS011;1984;48.312;9.244;2024-03-23T04:44:30;2.57;;;2.10;;
3939;SDS011;1984;48.312;9.244;2024-03-23T04:46:56;4.53;;;2.37;;
3939;SDS011;1984;48.312;9.244;2024-03-23T04:49:22;4.47;;;2.50;;
3939;SDS011;1984;48.312;9.244;2024-03-23T04:51:47;2.60;;;2.40;;
3939;SDS011;1984;48.312;9.244;2024-03-23T04:54:13;2.50;;;2.30;;
3939;SDS011;1984;48.312;9.244;2024-03-23T04:56:38;4.67;;;2.77;;
3939;SDS011;1984;48.312;9.244;2024-03-23T04:59:04;3.43;;;3.13;;
3939;SDS011;1984;48.312;9.244;2024-03-23T05:01:30;5.47;;;3.33;;
3939;SDS011;1984;48.312;9.244;2024-03-23T05:03:56;6.80;;;3.37;;
3939;SDS011;1984;48.312;9.244;2024-03-23T05:06:22;5.07;;;3.30;;
3939;SDS011;1984;48.312;9.244;2024-03-23T05:08:48;2.90;;;2.57;;
3939;SDS011;1984;48.312;9.244;2024-03-23T05:11:14;3.33;;;2.67;;
3939;SDS011;1984;48.312;9.244;2024-03-23T05:13:41;9.33;;;2.60;;
3939;SDS011;1984;48.312;9.244;2024-03-23T05:16:07;3.20;;;2.90;;
3939;SDS011;1984;48.312;9.244;2024-03-23T05:18:33;2.73;;;2.33;;
3939;SDS011;1984;48.312;9.244;2024-03-23T05:20:59;3.40;;;2.57;;
3939;SDS011;1984;48.312;9.244;2024-03-23T05:23:25;6.40;;;2.80;;
3939;SDS011;1984;48.312;9.244;2024-03-23T05:25:51;2.47;;;2.27;;
3939;SDS011;1984;48.312;9.244;2024-03-23T05:28:17;2.77;;;2.50;;
3939;SDS011;1984;48.312;9.244;2024-03-23T05:30:43;6.97;;;2.30;;
3939;SDS011;1984;48.312;9.244;2024-03-23T05:33:08;5.20;;;3.07;;
3939;SDS011;1984;48.312;9.244;2024-03-23T05:35:34;5.60;;;3.00;;
3939;SDS011;1984;48.312;9.244;2024-03-23T05:37:59;3.23;;;2.67;;
3939;SDS011;1984;48.312;9.244;2024-03-23T05:40:26;4.67;;;2.93;;
3939;SDS011;1984;48.312;9.244;2024-03-23T05:42:51;3.73;;;2.87;;
3939;SDS011;1984;48.312;9.244;2024-03-23T05:45:20;2.50;;;2.30;;
3939;SDS011;1984;48.312;9.244;2024-03-23T05:47:47;2.70;;;2.50;;
3939;SDS011;1984;48.312;9.244;2024-03-23T05:50:13;3.17;;;2.33;;
3939;SDS011;1984;48.312;9.244;2024-03-23T05:52:39;3.27;;;2.20;;
3939;SDS011;1984;48.312;9.244;2024-03-23T05:55:05;2.50;;;2.03;;
3939;SDS011;1984;48.312;9.244;2024-03-23T05:57:31;1.63;;;1.53;;
3939;SDS011;1984;48.312;9.244;2024-03-23T05:59:57;2.07;;;1.90;;
3939;SDS011;1984;48.312;9.244;2024-03-23T06:02:22;1.53;;;1.43;;
3939;SDS011;1984;48.312;9.244;2024-03-23T06:04:49;1.23;;;1.23;;
3939;SDS011;1984;48.312;9.244;2024-03-23T06:07:14;1.10;;;1.10;;
3939;SDS011;1984;48.312;9.244;2024-03-23T06:09:41;1.20;;;1.20;;
3939;SDS011;1984;48.312;9.244;2024-03-23T06:12:07;1.30;;;1.30;;
3939;SDS011;1984;48.312;9.244;2024-03-23T06:14:33;1.90;;;1.63;;
3939;SDS011;1984;48.312;9.244;2024-03-23T06:16:59;1.83;;;1.57;;
3939;SDS011;1984;48.312;9.244;2024-03-23T06:19:25;1.33;;;1.27;;
3939;SDS011;1984;48.312;9.244;2024-03-23T06:21:52;2.20;;;2.00;;
3939;SDS011;1984;48.312;9.244;2024-03-23T06:24:19;2.37;;;2.17;;
3939;SDS011;1984;48.312;9.244;2024-03-23T06:26:45;2.10;;;1.97;;
3939;SDS011;1984;48.312;9.244;2024-03-23T06:29:11;3.10;;;2.70;;
3939;SDS011;1984;48.312;9.244;2024-03-23T06:31:36;3.20;;;2.90;;
3939;SDS011;1984;48.312;9.244;2024-03-23T06:34:01;6.03;;;3.10;;
3939;SDS011;1984;48.312;9.244;2024-03-23T06:36:27;4.50;;;3.50;;
3939;SDS011;1984;48.312;9.244;2024-03-23T06:38:53;7.60;;;4.50;;
3939;SDS011;1984;48.312;9.244;2024-03-23T06:41:19;5.80;;;4.00;;
3939;SDS011;1984;48.312;9.244;2024-03-23T06:43:44;4.97;;;3.83;;
3939;SDS011;1984;48.312;9.244;2024-03-23T06:46:10;6.33;;;4.60;;
3939;SDS011;1984;48.312;9.244;2024-03-23T06:48:35;7.57;;;4.30;;
3939;SDS011;1984;48.312;9.244;2024-03-23T06:51:01;6.40;;;4.87;;
3939;SDS011;1984;48.312;9.244;2024-03-23T06:53:26;6.70;;;4.43;;
3939;SDS011;1984;48.312;9.244;2024-03-23T06:55:52;5.77;;;4.77;;
3939;SDS011;1984;48.312;9.244;2024-03-23T06:58:19;9.00;;;4.80;;
3939;SDS011;1984;48.312;9.244;2024-03-23T07:00:45;7.83;;;5.77;;
3939;SDS011;1984;48.312;9.244;2024-03-23T07:03:11;5.57;;;4.60;;
3939;SDS011;1984;48.312;9.244;2024-03-23T07:05:37;8.90;;;5.23;;
3939;SDS011;1984;48.312;9.244;2024-03-23T07:08:03;6.60;;;5.03;;
3939;SDS011;1984;48.312;9.244;2024-03-23T07:10:28;7.00;;;5.40;;
3939;SDS011;1984;48.312;9.244;2024-03-23T07:12:54;4.10;;;3.40;;
3939;SDS011;1984;48.312;9.244;2024-03-23T07:15:19;5.77;;;2.70;;
3939;SDS011;1984;48.312;9.244;2024-03-23T07:17:48;3.13;;;2.43;;
3939;SDS011;1984;48.312;9.244;2024-03-23T07:20:13;2.63;;;2.40;;
3939;SDS011;1984;48.312;9.244;2024-03-23T07:22:39;4.47;;;2.93;;
3939;SDS011;1984;48.312;9.244;2024-03-23T07:25:05;2.40;;;2.20;;
3939;SDS011;1984;48.312;9.244;2024-03-23T07:27:31;1.87;;;1.70;;
3939;SDS011;1984;48.312;9.244;2024-03-23T07:29:57;2.37;;;2.17;;
3939;SDS011;1984;48.312;9.244;2024-03-23T07:32:22;1.93;;;1.70;;
3939;SDS011;1984;48.312;9.244;2024-03-23T07:34:48;1.43;;;1.33;;
3939;SDS011;1984;48.312;9.244;2024-03-23T07:37:13;1.87;;;1.77;;
3939;SDS011;1984;48.312;9.244;2024-03-23T07:39:39;1.33;;;1.27;;
3939;SDS011;1984;48.312;9.244;2024-03-23T07:42:05;1.43;;;1.33;;
3939;SDS011;1984;48.312;9.244;2024-03-23T07:44:31;2.57;;;0.90;;
3939;SDS011;1984;48.312;9.244;2024-03-23T07:46:57;1.13;;;1.10;;
3939;SDS011;1984;48.312;9.244;2024-03-23T07:49:23;3.13;;;1.10;;
3939;SDS011;1984;48.312;9.244;2024-03-23T07:51:49;1.20;;;1.20;;
3939;SDS011;1984;48.312;9.244;2024-03-23T07:54:14;1.83;;;1.73;;
3939;SDS011;1984;48.312;9.244;2024-03-23T07:56:40;2.37;;;1.63;;
3939;SDS011;1984;48.312;9.244;2024-03-23T07:59:05;1.00;;;1.00;;
3939;SDS011;1984;48.312;9.244;2024-03-23T08:01:31;1.30;;;1.20;;
3939;SDS011;1984;48.312;9.244;2024-03-23T08:03:56;1.53;;;1.20;;
3939;SDS011;1984;48.312;9.244;2024-03-23T08:06:22;0.70;;;0.70;;
3939;SDS011;1984;48.312;9.244;2024-03-23T08:08:49;0.60;;;0.60;;
3939;SDS011;1984;48.312;9.244;2024-03-23T08:11:24;1.07;;;0.97;;
3939;SDS011;1984;48.312;9.244;2024-03-23T08:13:56;0.97;;;0.93;;
3939;SDS011;1984;48.312;9.244;2024-03-23T08:16:23;0.80;;;0.80;;
3939;SDS011;1984;48.312;9.244;2024-03-23T08:18:50;0.80;;;0.70;;
3939;SDS011;1984;48.312;9.244;2024-03-23T08:21:16;0.70;;;0.70;;
3939;SDS011;1984;48.312;9.244;2024-03-23T08:23:42;0.70;;;0.70;;
3939;SDS011;1984;48.312;9.244;2024-03-23T08:26:11;0.50;;;0.50;;
3939;SDS011;1984;48.312;9.244;2024-03-23T08:28:40;0.57;;;0.57;;
3939;SDS011;1984;48.312;9.244;2024-03-23T08:31:10;0.67;;;0.67;;
3939;SDS011;1984;48.312;9.244;2024-03-23T08:33:37;1.43;;;0.90;;
3939;SDS011;1984;48.312;9.244;2024-03-23T08:36:04;0.60;;;0.60;;
3939;SDS011;1984;48.312;9.244;2024-03-23T08:38:31;0.97;;;0.83;;
3939;SDS011;1984;48.312;9.244;2024-03-23T08:41:00;0.90;;;0.90;;
3939;SDS011;1984;48.312;9.244;2024-03-23T08:43:30;1.00;;;1.00;;
3939;SDS011;1984;48.312;9.244;2024-03-23T08:46:07;2.53;;;0.90;;
3939;SDS011;1984;48.312;9.244;2024-03-23T08:48:38;1.27;;;0.90;;
3939;SDS011;1984;48.312;9.244;2024-03-23T08:51:07;1.30;;;1.20;;
3939;SDS011;1984;48.312;9.244;2024-03-23T08:53:37;1.20;;;1.10;;
3939;SDS011;1984;48.312;9.244;2024-03-23T08:56:04;1.20;;;1.10;;
3939;SDS011;1984;48.312;9.244;2024-03-23T08:58:34;2.63;;;1.50;;
3939;SDS011;1984;48.312;9.244;2024-03-23T09:01:08;1.47;;;1.10;;
3939;SDS011;1984;48.312;9.244;2024-03-23T09:03:41;2.00;;;1.13;;
3939;SDS011;1984;48.312;9.244;2024-03-23T09:06:07;5.00;;;1.60;;
3939;SDS011;1984;48.312;9.244;2024-03-23T09:08:36;4.60;;;1.60;;
3939;SDS011;1984;48.312;9.244;2024-03-23T09:11:05;2.20;;;1.60;;
3939;SDS011;1984;48.312;9.244;2024-03-23T09:13:35;1.53;;;1.40;;
3939;SDS011;1984;48.312;9.244;2024-03-23T09:16:02;2.00;;;1.60;;
3939;SDS011;1984;48.312;9.244;2024-03-23T09:18:31;10.13;;;2.40;;
3939;SDS011;1984;48.312;9.244;2024-03-23T09:21:00;2.00;;;1.60;;
3939;SDS011;1984;48.312;9.244;2024-03-23T09:23:26;6.33;;;2.67;;
3939;SDS011;1984;48.312;9.244;2024-03-23T09:25:52;3.73;;;2.07;;
3939;SDS011;1984;48.312;9.244;2024-03-23T09:28:17;3.30;;;1.83;;
3939;SDS011;1984;48.312;9.244;2024-03-23T09:30:43;11.63;;;2.13;;
3939;SDS011;1984;48.312;9.244;2024-03-23T09:33:09;3.53;;;2.30;;
3939;SDS011;1984;48.312;9.244;2024-03-23T09:35:38;2.70;;;2.00;;
3939;SDS011;1984;48.312;9.244;2024-03-23T09:38:04;2.20;;;1.70;;
3939;SDS011;1984;48.312;9.244;2024-03-23T09:40:31;4.37;;;2.33;;
3939;SDS011;1984;48.312;9.244;2024-03-23T09:42:56;8.53;;;2.27;;
3939;SDS011;1984;48.312;9.244;2024-03-23T09:45:26;3.87;;;2.10;;
3939;SDS011;1984;48.312;9.244;2024-03-23T09:47:52;4.30;;;2.07;;
3939;SDS011;1984;48.312;9.244;2024-03-23T09:50:18;1.97;;;1.83;;
3939;SDS011;1984;48.312;9.244;2024-03-23T09:52:45;7.30;;;2.00;;
3939;SDS011;1984;48.312;9.244;2024-03-23T09:55:11;2.80;;;2.23;;
3939;SDS011;1984;48.312;9.244;2024-03-23T09:57:37;4.07;;;2.37;;
3939;SDS011;1984;48.312;9.244;2024-03-23T10:00:03;6.63;;;2.63;;
3939;SDS011;1984;48.312;9.244;2024-03-23T10:02:29;2.30;;;2.13;;
3939;SDS011;1984;48.312;9.244;2024-03-23T10:04:54;3.17;;;2.33;;
3939;SDS011;1984;48.312;9.244;2024-03-23T10:07:20;3.80;;;2.50;;
3939;SDS011;1984;48.312;9.244;2024-03-23T10:09:49;4.00;;;2.17;;
3939;SDS011;1984;48.312;9.244;2024-03-23T10:12:18;3.53;;;2.43;;
3939;SDS011;1984;48.312;9.244;2024-03-23T10:14:44;1.83;;;1.70;;
3939;SDS011;1984;48.312;9.244;2024-03-23T10:17:17;2.33;;;2.13;;
3939;SDS011;1984;48.312;9.244;2024-03-23T10:19:44;1.90;;;1.70;;
3939;SDS011;1984;48.312;9.244;2024-03-23T10:22:13;3.20;;;2.40;;
3939;SDS011;1984;48.312;9.244;2024-03-23T10:24:40;3.37;;;2.10;;
3939;SDS011;1984;48.312;9.244;2024-03-23T10:27:08;9.40;;;2.10;;
3939;SDS011;1984;48.312;9.244;2024-03-23T10:29:34;7.23;;;2.03;;
3939;SDS011;1984;48.312;9.244;2024-03-23T10:32:12;6.50;;;2.50;;
3939;SDS011;1984;48.312;9.244;2024-03-23T10:34:39;13.80;;;2.47;;
3939;SDS011;1984;48.312;9.244;2024-03-23T10:37:05;6.73;;;2.40;;
3939;SDS011;1984;48.312;9.244;2024-03-23T10:39:35;4.40;;;2.20;;
3939;SDS011;1984;48.312;9.244;2024-03-23T10:42:02;6.73;;;2.30;;
3939;SDS011;1984;48.312;9.244;2024-03-23T10:44:29;8.03;;;2.90;;
3939;SDS011;1984;48.312;9.244;2024-03-23T10:46:56;12.20;;;3.57;;
3939;SDS011;1984;48.312;9.244;2024-03-23T10:49:29;7.27;;;3.20;;
3939;SDS011;1984;48.312;9.244;2024-03-23T10:52:05;8.33;;;3.90;;
3939;SDS011;1984;48.312;9.244;2024-03-23T10:54:31;6.37;;;2.80;;
3939;SDS011;1984;48.312;9.244;2024-03-23T10:59:31;5.20;;;2.50;;
3939;SDS011;1984;48.312;9.244;2024-03-23T11:01:58;6.67;;;2.87;;
3939;SDS011;1984;48.312;9.244;2024-03-23T11:04:37;9.50;;;2.60;;
3939;SDS011;1984;48.312;9.244;2024-03-23T11:07:07;6.30;;;2.63;;
3939;SDS011;1984;48.312;9.244;2024-03-23T11:09:55;2.50;;;1.70;;
3939;SDS011;1984;48.312;9.244;2024-03-23T11:14:50;5.97;;;2.03;;
3939;SDS011;1984;48.312;9.244;2024-03-23T11:17:22;6.60;;;2.40;;
3939;SDS011;1984;48.312;9.244;2024-03-23T11:19:58;4.10;;;2.27;;
3939;SDS011;1984;48.312;9.244;2024-03-23T11:25:02;3.73;;;2.00;;
3939;SDS011;1984;48.312;9.244;2024-03-23T11:27:28;4.83;;;2.00;;
3939;SDS011;1984;48.312;9.244;2024-03-23T11:29:54;5.60;;;3.13;;
3939;SDS011;1984;48.312;9.244;2024-03-23T11:32:19;3.43;;;1.30;;
3939;SDS011;1984;48.312;9.244;2024-03-23T11:34:45;2.83;;;1.57;;
3939;SDS011;1984;48.312;9.244;2024-03-23T11:37:11;2.20;;;1.30;;
3939;SDS011;1984;48.312;9.244;2024-03-23T11:39:44;1.70;;;1.20;;
3939;SDS011;1984;48.312;9.244;2024-03-23T11:42:13;2.70;;;1.10;;
3939;SDS011;1984;48.312;9.244;2024-03-23T11:44:40;2.10;;;0.90;;
3939;SDS011;1984;48.312;9.244;2024-03-23T11:47:08;6.63;;;1.37;;
3939;SDS011;1984;48.312;9.244;2024-03-23T11:49:35;0.77;;;0.77;;
3939;SDS011;1984;48.312;9.244;2024-03-23T11:52:05;6.97;;;1.20;;
3939;SDS011;1984;48.312;9.244;2024-03-23T11:54:32;2.30;;;1.23;;
3939;SDS011;1984;48.312;9.244;2024-03-23T11:56:58;2.00;;;1.33;;
3939;SDS011;1984;48.312;9.244;2024-03-23T12:02:07;1.60;;;1.50;;
3939;SDS011;1984;48.312;9.244;2024-03-23T12:04:33;2.50;;;1.20;;
3939;SDS011;1984;48.312;9.244;2024-03-23T12:07:19;3.03;;;1.20;;
3939;SDS011;1984;48.312;9.244;2024-03-23T12:09:47;3.33;;;1.33;;
3939;SDS011;1984;48.312;9.244;2024-03-23T12:12:28;2.00;;;0.90;;
3939;SDS011;1984;48.312;9.244;2024-03-23T12:15:04;1.17;;;1.10;;
3939;SDS011;1984;48.312;9.244;2024-03-23T12:17:31;1.77;;;1.20;;
3939;SDS011;1984;48.312;9.244;2024-03-23T12:19:57;0.80;;;0.80;;
3939;SDS011;1984;48.312;9.244;2024-03-23T12:22:23;1.00;;;1.00;;
3939;SDS011;1984;48.312;9.244;2024-03-23T12:24:49;1.60;;;1.00;;
3939;SDS011;1984;48.312;9.244;2024-03-23T12:27:15;1.20;;;1.10;;
3939;SDS011;1984;48.312;9.244;2024-03-23T12:29:41;0.80;;;0.80;;
3939;SDS011;1984;48.312;9.244;2024-03-23T12:32:08;1.90;;;1.20;;
3939;SDS011;1984;48.312;9.244;2024-03-23T12:34:33;3.37;;;1.30;;
3939;SDS011;1984;48.312;9.244;2024-03-23T12:36:59;1.43;;;1.10;;
3939;SDS011;1984;48.312;9.244;2024-03-23T12:39:24;1.87;;;1.50;;
3939;SDS011;1984;48.312;9.244;2024-03-23T12:41:50;3.83;;;1.47;;
3939;SDS011;1984;48.312;9.244;2024-03-23T12:44:17;1.83;;;1.60;;
3939;SDS011;1984;48.312;9.244;2024-03-23T12:46:43;7.60;;;2.37;;
3939;SDS011;1984;48.312;9.244;2024-03-23T12:49:09;6.00;;;2.40;;
3939;SDS011;1984;48.312;9.244;2024-03-23T12:51:34;5.20;;;2.03;;
3939;SDS011;1984;48.312;9.244;2024-03-23T12:54:00;13.93;;;4.77;;
3939;SDS011;1984;48.312;9.244;2024-03-23T12:56:26;7.73;;;2.37;;
3939;SDS011;1984;48.312;9.244;2024-03-23T12:58:55;2.80;;;1.80;;
3939;SDS011;1984;48.312;9.244;2024-03-23T13:01:22;3.17;;;1.80;;
3939;SDS011;1984;48.312;9.244;2024-03-23T13:03:48;5.30;;;1.80;;
3939;SDS011;1984;48.312;9.244;2024-03-23T13:06:15;3.33;;;2.13;;
3939;SDS011;1984;48.312;9.244;2024-03-23T13:08:42;5.73;;;2.03;;
3939;SDS011;1984;48.312;9.244;2024-03-23T13:11:09;4.20;;;2.50;;
3939;SDS011;1984;48.312;9.244;2024-03-23T13:13:35;9.67;;;1.67;;
3939;SDS011;1984;48.312;9.244;2024-03-23T13:16:01;1.70;;;1.60;;
3939;SDS011;1984;48.312;9.244;2024-03-23T13:18:28;6.03;;;1.93;;
3939;SDS011;1984;48.312;9.244;2024-03-23T13:20:54;2.10;;;1.80;;
3939;SDS011;1984;48.312;9.244;2024-03-23T13:23:20;1.83;;;1.73;;
3939;SDS011;1984;48.312;9.244;2024-03-23T13:25:52;13.17;;;1.87;;
3939;SDS011;1984;48.312;9.244;2024-03-23T13:28:20;5.87;;;1.83;;
3939;SDS011;1984;48.312;9.244;2024-03-23T13:30:52;7.10;;;1.53;;
3939;SDS011;1984;48.312;9.244;2024-03-23T13:33:18;9.10;;;2.23;;
3939;SDS011;1984;48.312;9.244;2024-03-23T13:35:53;1.93;;;1.50;;
3939;SDS011;1984;48.312;9.244;2024-03-23T13:38:21;4.87;;;1.87;;
3939;SDS011;1984;48.312;9.244;2024-03-23T13:40:50;8.23;;;1.30;;
3939;SDS011;1984;48.312;9.244;2024-03-23T13:43:16;10.17;;;2.80;;
3939;SDS011;1984;48.312;9.244;2024-03-23T13:45:41;6.00;;;1.67;;
3939;SDS011;1984;48.312;9.244;2024-03-23T13:48:07;2.00;;;1.33;;
3939;SDS011;1984;48.312;9.244;2024-03-23T13:50:33;8.30;;;1.93;;
3939;SDS011;1984;48.312;9.244;2024-03-23T13:52:58;3.07;;;1.47;;
3939;SDS011;1984;48.312;9.244;2024-03-23T13:55:24;2.30;;;1.13;;
3939;SDS011;1984;48.312;9.244;2024-03-23T13:57:49;7.47;;;1.10;;
3939;SDS011;1984;48.312;9.244;2024-03-23T14:00:16;4.10;;;1.50;;
3939;SDS011;1984;48.312;9.244;2024-03-23T14:02:43;4.30;;;1.33;;
3939;SDS011;1984;48.312;9.244;2024-03-23T14:05:09;5.13;;;1.40;;
3939;SDS011;1984;48.312;9.244;2024-03-23T14:07:36;6.53;;;1.70;;
3939;SDS011;1984;48.312;9.244;2024-03-23T14:10:04;2.47;;;1.50;;
3939;SDS011;1984;48.312;9.244;2024-03-23T14:12:35;2.03;;;1.47;;
3939;SDS011;1984;48.312;9.244;2024-03-23T14:15:03;4.77;;;1.40;;
3939;SDS011;1984;48.312;9.244;2024-03-23T14:17:30;3.23;;;1.13;;
3939;SDS011;1984;48.312;9.244;2024-03-23T14:19:56;3.87;;;1.40;;
3939;SDS011;1984;48.312;9.244;2024-03-23T14:22:25;2.20;;;1.17;;
3939;SDS011;1984;48.312;9.244;2024-03-23T14:24:54;2.00;;;1.00;;
3939;SDS011;1984;48.312;9.244;2024-03-23T14:27:19;2.77;;;1.07;;
3939;SDS011;1984;48.312;9.244;2024-03-23T14:29:46;2.93;;;0.90;;
3939;SDS011;1984;48.312;9.244;2024-03-23T14:32:12;1.13;;;1.03;;
3939;SDS011;1984;48.312;9.244;2024-03-23T14:34:38;5.00;;;1.03;;
3939;SDS011;1984;48.312;9.244;2024-03-23T14:37:03;2.83;;;0.90;;
3939;SDS011;1984;48.312;9.244;2024-03-23T14:39:30;5.23;;;0.80;;
3939;SDS011;1984;48.312;9.244;2024-03-23T14:41:56;2.73;;;1.03;;
3939;SDS011;1984;48.312;9.244;2024-03-23T14:44:22;3.10;;;1.20;;
3939;SDS011;1984;48.312;9.244;2024-03-23T14:46:47;9.90;;;1.30;;
3939;SDS011;1984;48.312;9.244;2024-03-23T14:49:14;2.73;;;0.80;;
3939;SDS011;1984;48.312;9.244;2024-03-23T14:51:42;1.37;;;0.93;;
3939;SDS011;1984;48.312;9.244;2024-03-23T14:54:08;4.87;;;0.77;;
3939;SDS011;1984;48.312;9.244;2024-03-23T14:56:34;2.30;;;1.07;;
3939;SDS011;1984;48.312;9.244;2024-03-23T14:58:59;2.13;;;0.93;;
3939;SDS011;1984;48.312;9.244;2024-03-23T15:01:25;1.93;;;1.40;;
3939;SDS011;1984;48.312;9.244;2024-03-23T15:03:51;4.00;;;0.90;;
3939;SDS011;1984;48.312;9.244;2024-03-23T15:06:18;3.70;;;1.00;;
3939;SDS011;1984;48.312;9.244;2024-03-23T15:08:44;1.67;;;1.10;;
3939;SDS011;1984;48.312;9.244;2024-03-23T15:11:10;9.27;;;1.17;;
3939;SDS011;1984;48.312;9.244;2024-03-23T15:13:36;1.90;;;1.13;;
3939;SDS011;1984;48.312;9.244;2024-03-23T15:16:02;3.43;;;1.07;;
3939;SDS011;1984;48.312;9.244;2024-03-23T15:18:31;2.67;;;0.80;;
3939;SDS011;1984;48.312;9.244;2024-03-23T15:20:58;1.27;;;0.80;;
3939;SDS011;1984;48.312;9.244;2024-03-23T15:23:28;8.03;;;1.33;;
3939;SDS011;1984;48.312;9.244;2024-03-23T15:25:57;1.57;;;1.07;;
3939;SDS011;1984;48.312;9.244;2024-03-23T15:28:23;1.63;;;0.80;;
3939;SDS011;1984;48.312;9.244;2024-03-23T15:30:52;1.60;;;1.07;;
3939;SDS011;1984;48.312;9.244;2024-03-23T15:33:18;0.80;;;0.80;;
3939;SDS011;1984;48.312;9.244;2024-03-23T15:35:44;1.03;;;0.90;;
3939;SDS011;1984;48.312;9.244;2024-03-23T15:38:09;1.23;;;0.93;;
3939;SDS011;1984;48.312;9.244;2024-03-23T15:40:35;2.07;;;0.90;;
3939;SDS011;1984;48.312;9.244;2024-03-23T15:43:00;0.93;;;0.83;;
3939;SDS011;1984;48.312;9.244;2024-03-23T15:45:26;0.90;;;0.90;;
3939;SDS011;1984;48.312;9.244;2024-03-23T15:47:52;0.80;;;0.80;;
3939;SDS011;1984;48.312;9.244;2024-03-23T15:50:17;1.43;;;0.80;;
3939;SDS011;1984;48.312;9.244;2024-03-23T15:52:43;1.33;;;0.83;;
3939;SDS011;1984;48.312;9.244;2024-03-23T15:55:08;2.73;;;0.87;;
3939;SDS011;1984;48.312;9.244;2024-03-23T15:57:35;0.83;;;0.70;;
3939;SDS011;1984;48.312;9.244;2024-03-23T16:00:03;1.07;;;0.87;;
3939;SDS011;1984;48.312;9.244;2024-03-23T16:02:29;4.67;;;1.20;;
3939;SDS011;1984;48.312;9.244;2024-03-23T16:04:55;1.53;;;1.40;;
3939;SDS011;1984;48.312;9.244;2024-03-23T16:07:23;1.23;;;1.13;;
3939;SDS011;1984;48.312;9.244;2024-03-23T16:09:48;1.90;;;1.30;;
3939;SDS011;1984;48.312;9.244;2024-03-23T16:12:14;5.40;;;1.50;;
3939;SDS011;1984;48.312;9.244;2024-03-23T16:14:39;2.20;;;1.23;;